createdAt,value
2023-02-15T00:04:19.911Z,18.63
2023-02-15T00:09:23.841Z,18.80
2023-02-15T00:14:27.471Z,19.45
2023-02-15T00:19:32.505Z,19.70
2023-02-15T00:24:36.304Z,18.55
2023-02-15T00:29:40.099Z,18.30
2023-02-15T00:34:45.188Z,19.05
2023-02-15T00:39:48.940Z,18.85
2023-02-15T00:44:52.621Z,17.92
2023-02-15T00:49:59.288Z,17.98
2023-02-15T00:55:02.981Z,17.35
2023-02-15T01:00:08.025Z,17.00
2023-02-15T01:05:13.626Z,16.70
2023-02-15T01:10:18.133Z,17.02
2023-02-15T01:15:22.365Z,17.20
2023-02-15T01:20:29.579Z,17.60
2023-02-15T01:25:35.876Z,17.10
2023-02-15T01:30:39.633Z,18.58
2023-02-15T01:35:44.804Z,16.88
2023-02-15T01:40:48.508Z,18.23
2023-02-15T01:45:52.988Z,17.88
2023-02-15T01:51:00.912Z,17.60
2023-02-15T01:56:10.906Z,16.10
2023-02-15T02:01:14.584Z,16.20
2023-02-15T02:06:20.345Z,15.93
2023-02-15T02:11:24.487Z,16.45
2023-02-15T02:16:35.205Z,17.08
2023-02-15T02:22:10.238Z,16.30
2023-02-15T02:27:23.335Z,17.52
2023-02-15T02:32:56.859Z,15.38
2023-02-15T02:38:10.800Z,15.48
2023-02-15T02:43:22.691Z,16.63
2023-02-15T02:48:30.331Z,16.13
2023-02-15T02:53:36.402Z,16.33
2023-02-15T02:58:44.871Z,15.55
2023-02-15T03:03:52.752Z,15.88
2023-02-15T03:09:05.360Z,15.82
2023-02-15T03:14:09.367Z,15.65
2023-02-15T03:19:17.207Z,16.15
2023-02-15T03:24:29.889Z,15.77
2023-02-15T03:29:35.676Z,15.30
2023-02-15T03:34:39.792Z,15.20
2023-02-15T03:39:50.938Z,15.38
2023-02-15T03:45:00.618Z,14.75
2023-02-15T03:50:27.706Z,15.48
2023-02-15T03:55:33.116Z,14.95
2023-02-15T04:00:58.146Z,14.82
2023-02-15T04:06:03.527Z,14.52
2023-02-15T04:11:08.778Z,15.57
2023-02-15T04:16:12.459Z,15.38
2023-02-15T04:21:34.258Z,14.85
2023-02-15T04:26:39.284Z,15.02
2023-02-15T04:31:43.992Z,15.85
2023-02-15T04:36:47.773Z,14.88
2023-02-15T04:41:52.822Z,15.68
2023-02-15T04:46:56.891Z,14.80
2023-02-15T04:52:00.595Z,14.13
2023-02-15T04:57:05.711Z,15.27
2023-02-15T05:02:09.878Z,14.68
2023-02-15T05:07:13.593Z,14.63
2023-02-15T05:12:18.612Z,13.88
2023-02-15T05:17:22.247Z,13.98
2023-02-15T05:22:25.909Z,14.02
2023-02-15T05:27:48.630Z,14.43
2023-02-15T05:32:52.320Z,14.05
2023-02-15T05:37:55.993Z,15.02
2023-02-15T05:43:01.049Z,13.45
2023-02-15T05:48:04.966Z,14.13
2023-02-15T05:53:08.740Z,13.80
2023-02-15T05:58:13.758Z,13.60
2023-02-15T06:03:17.457Z,13.90
2023-02-15T06:08:21.499Z,13.43
2023-02-15T06:13:26.619Z,14.25
2023-02-15T06:18:30.378Z,13.40
2023-02-15T06:23:34.101Z,13.38
2023-02-15T06:28:39.383Z,14.32
2023-02-15T06:33:43.106Z,14.60
2023-02-15T06:38:46.864Z,15.07
2023-02-15T06:43:52.261Z,13.55
2023-02-15T06:48:56.032Z,13.57
2023-02-15T06:53:59.712Z,13.50
2023-02-15T06:59:04.715Z,14.15
2023-02-15T07:04:08.488Z,14.05
2023-02-15T07:09:12.324Z,13.38
2023-02-15T07:14:17.482Z,13.48
2023-02-15T07:19:21.204Z,12.82
2023-02-15T07:24:25.037Z,13.23
2023-02-15T07:29:30.348Z,13.32
2023-02-15T07:34:34.043Z,12.88
2023-02-15T07:39:37.765Z,14.52
2023-02-15T07:44:42.912Z,14.35
2023-02-15T07:49:46.939Z,13.82
2023-02-15T07:54:50.707Z,14.13
2023-02-15T07:59:55.938Z,15.10
2023-02-15T08:04:59.741Z,13.20
2023-02-15T08:10:03.577Z,14.23
2023-02-15T08:15:09.616Z,15.57
2023-02-15T08:20:14.491Z,14.73
2023-02-15T08:25:18.412Z,14.15
2023-02-15T08:30:23.757Z,15.75
2023-02-15T08:35:27.526Z,15.10
2023-02-15T08:40:31.281Z,15.90
2023-02-15T08:45:36.420Z,16.65
2023-02-15T08:50:40.534Z,15.75
2023-02-15T08:55:44.303Z,15.82
2023-02-15T09:00:49.426Z,16.50
2023-02-15T09:05:58.328Z,17.35
2023-02-15T09:11:12.291Z,20.13
2023-02-15T09:16:17.925Z,19.42
2023-02-15T09:21:23.235Z,18.25
2023-02-15T09:26:27.493Z,17.45
2023-02-15T09:31:34.419Z,17.02
2023-02-15T09:36:39.711Z,17.20
2023-02-15T09:42:08.904Z,17.67
2023-02-15T09:47:36.020Z,16.83
2023-02-15T09:53:03.122Z,17.58
2023-02-15T09:58:16.623Z,17.92
2023-02-15T10:03:42.182Z,17.90
2023-02-15T10:08:59.265Z,17.60
2023-02-15T10:14:16.606Z,19.13
2023-02-15T10:19:30.281Z,17.17
2023-02-15T10:24:49.288Z,18.30
2023-02-15T10:30:06.079Z,17.63
2023-02-15T10:40:31.082Z,17.00
2023-02-15T10:45:46.846Z,18.60
2023-02-15T10:50:54.802Z,17.17
2023-02-15T10:56:05.267Z,16.50
2023-02-15T11:01:22.404Z,16.10
2023-02-15T11:06:29.475Z,14.07
2023-02-15T11:16:41.838Z,14.82
2023-02-15T11:21:51.085Z,15.60
2023-02-15T11:26:59.698Z,15.80
2023-02-15T11:32:13.715Z,15.93
2023-02-15T11:37:26.450Z,15.20
2023-02-15T11:42:33.611Z,16.30
2023-02-15T11:47:37.342Z,16.25
2023-02-15T11:52:42.419Z,16.35
2023-02-15T11:57:52.564Z,18.33
2023-02-15T12:02:59.470Z,15.63
2023-02-15T12:08:11.592Z,16.88
2023-02-15T12:13:17.328Z,16.35
2023-02-15T12:18:29.449Z,16.85
2023-02-15T12:23:35.762Z,15.07
2023-02-15T12:28:43.251Z,16.43
2023-02-15T12:33:48.215Z,16.67
2023-02-15T12:39:23.263Z,17.15
2023-02-15T12:44:30.040Z,16.73
2023-02-15T12:49:34.995Z,16.60
2023-02-15T12:54:44.922Z,17.08
2023-02-15T12:59:53.251Z,16.58
2023-02-15T13:04:58.708Z,15.13
2023-02-15T13:10:04.017Z,15.75
2023-02-15T13:15:28.226Z,15.70
2023-02-15T13:20:32.989Z,16.48
2023-02-15T13:25:48.266Z,15.55
2023-02-15T13:30:53.324Z,16.10
2023-02-15T13:36:04.912Z,15.30
2023-02-15T13:41:16.948Z,14.80
2023-02-15T13:46:36.445Z,15.15
2023-02-15T13:51:45.575Z,15.13
2023-02-15T13:57:03.521Z,15.70
2023-02-15T14:02:35.801Z,15.70
2023-02-15T14:07:56.209Z,15.63
2023-02-15T14:13:31.411Z,14.65
2023-02-15T14:18:42.173Z,16.65
2023-02-15T14:23:56.617Z,15.60
2023-02-15T14:29:08.903Z,14.93
2023-02-15T14:34:23.157Z,15.45
2023-02-15T14:39:56.328Z,16.42
2023-02-15T14:45:06.704Z,17.00
2023-02-15T14:50:45.219Z,16.75
2023-02-15T14:55:49.150Z,16.65
2023-02-15T15:00:52.960Z,16.67
2023-02-15T15:06:03.228Z,15.60
2023-02-15T15:11:43.832Z,16.00
2023-02-15T15:16:53.374Z,16.15
2023-02-15T15:22:04.328Z,15.50
2023-02-15T15:27:39.968Z,16.52
2023-02-15T15:32:50.776Z,15.43
2023-02-15T15:38:23.169Z,16.52
2023-02-15T15:43:41.669Z,16.48
2023-02-15T15:48:45.636Z,16.20
2023-02-15T15:53:54.347Z,16.67
2023-02-15T15:59:02.491Z,15.95
2023-02-15T16:04:06.399Z,15.32
2023-02-15T16:09:18.655Z,15.45
2023-02-15T16:14:31.022Z,15.07
2023-02-15T16:19:39.782Z,16.40
2023-02-15T16:25:21.433Z,16.85
2023-02-15T16:30:31.084Z,15.02
2023-02-15T16:35:35.537Z,15.45
2023-02-15T16:40:53.456Z,15.30
2023-02-15T16:46:05.746Z,15.23
2023-02-15T16:51:10.706Z,14.98
2023-02-15T16:56:16.973Z,15.13
2023-02-15T17:01:24.937Z,15.10
2023-02-15T17:06:30.471Z,16.15
2023-02-15T17:11:41.811Z,14.40
2023-02-15T17:16:50.358Z,16.85
2023-02-15T17:21:56.608Z,14.63
2023-02-15T17:27:05.991Z,16.30
2023-02-15T17:32:18.868Z,16.15
2023-02-15T17:37:28.458Z,14.93
2023-02-15T17:42:33.525Z,15.50
2023-02-15T17:47:37.372Z,15.68
2023-02-15T17:52:41.096Z,15.40
2023-02-15T17:57:46.173Z,15.15
2023-02-15T18:03:07.211Z,16.60
2023-02-15T18:08:31.559Z,16.75
2023-02-15T18:13:36.664Z,17.45
2023-02-15T18:18:40.407Z,17.15
2023-02-15T18:23:44.134Z,15.63
2023-02-15T18:28:49.302Z,16.65
2023-02-15T18:33:55.756Z,16.90
2023-02-15T18:39:04.759Z,16.55
2023-02-15T18:44:13.727Z,16.98
2023-02-15T18:49:17.495Z,16.33
2023-02-15T18:54:23.930Z,17.92
2023-02-15T18:59:30.613Z,15.48
2023-02-15T19:04:34.381Z,16.60
2023-02-15T19:09:39.527Z,17.08
2023-02-15T19:14:45.057Z,17.42
2023-02-15T19:19:49.121Z,18.20
2023-02-15T19:24:53.874Z,19.38
2023-02-15T19:30:00.586Z,18.10
2023-02-15T19:35:05.382Z,18.92
2023-02-15T19:40:21.316Z,19.40
2023-02-15T19:45:29.674Z,20.02
2023-02-15T19:50:35.492Z,19.23
2023-02-15T19:55:39.307Z,20.80
2023-02-15T20:00:44.416Z,19.77
2023-02-15T20:05:48.190Z,20.40
2023-02-15T20:10:51.978Z,20.13
2023-02-15T20:15:57.156Z,18.10
2023-02-15T20:21:02.374Z,20.58
2023-02-15T20:26:14.479Z,20.38
2023-02-15T20:31:20.680Z,20.85
2023-02-15T20:36:24.798Z,20.30
2023-02-15T20:41:37.628Z,20.85
2023-02-15T20:46:42.829Z,20.17
2023-02-15T20:51:47.571Z,21.33
2023-02-15T20:56:51.598Z,21.05
2023-02-15T21:02:00.420Z,20.27
2023-02-15T21:07:04.498Z,21.48
2023-02-15T21:12:14.352Z,20.70
2023-02-15T21:17:21.073Z,20.65
2023-02-15T21:22:24.873Z,21.50
2023-02-15T21:27:29.719Z,21.85
2023-02-15T21:32:35.736Z,21.10
2023-02-15T21:37:40.254Z,20.33
2023-02-15T21:43:01.256Z,20.90
2023-02-15T21:48:06.572Z,20.10
2023-02-15T21:53:13.793Z,20.52
2023-02-15T21:58:21.214Z,21.90
2023-02-15T22:03:27.701Z,21.60
2023-02-15T22:08:36.856Z,20.20
2023-02-15T22:13:41.245Z,21.23
2023-02-15T22:18:47.088Z,20.23
2023-02-15T22:23:50.899Z,21.67
2023-02-15T22:28:54.808Z,20.67
2023-02-15T22:33:59.940Z,22.40
2023-02-15T22:39:03.626Z,19.92
2023-02-15T22:44:07.414Z,20.98
2023-02-15T22:49:14.608Z,21.55
2023-02-15T22:54:19.768Z,20.48
2023-02-15T22:59:28.392Z,20.45
2023-02-15T23:04:33.604Z,21.90
2023-02-15T23:09:37.287Z,21.60
2023-02-15T23:14:41.095Z,22.52
2023-02-15T23:19:46.674Z,22.25
2023-02-15T23:24:53.886Z,21.25
2023-02-15T23:29:57.686Z,21.23
2023-02-15T23:35:02.867Z,21.95
2023-02-15T23:40:27.975Z,21.58
2023-02-15T23:45:38.158Z,20.25
2023-02-15T23:50:43.750Z,20.42
2023-02-15T23:55:47.654Z,19.42
